createdAt,value
2022-10-06T00:03:27.548Z,75.21
2022-10-06T00:08:34.515Z,74.97
2022-10-06T00:13:36.955Z,74.69
2022-10-06T00:18:38.921Z,74.48
2022-10-06T00:23:40.736Z,74.34
2022-10-06T00:28:47.655Z,74.22
2022-10-06T00:33:50.273Z,74.20
2022-10-06T00:38:52.345Z,74.10
2022-10-06T00:43:59.639Z,74.05
2022-10-06T00:49:12.297Z,74.20
2022-10-06T00:54:14.597Z,74.32
2022-10-06T00:59:18.828Z,74.42
2022-10-06T01:04:22.239Z,74.50
2022-10-06T01:09:24.817Z,74.59
2022-10-06T01:14:27.722Z,74.81
2022-10-06T01:19:51.089Z,74.93
2022-10-06T01:24:53.056Z,75.17
2022-10-06T01:29:57.315Z,75.16
2022-10-06T01:34:59.273Z,75.21
2022-10-06T01:40:02.026Z,75.36
2022-10-06T01:45:05.732Z,75.66
2022-10-06T01:50:08.316Z,75.90
2022-10-06T01:55:10.968Z,75.99
2022-10-06T02:00:13.822Z,76.20
2022-10-06T02:05:16.700Z,76.34
2022-10-06T02:10:22.339Z,76.76
2022-10-06T02:15:27.012Z,76.94
2022-10-06T02:20:29.146Z,76.88
2022-10-06T02:25:31.012Z,76.89
2022-10-06T02:30:33.846Z,77.13
2022-10-06T02:35:42.935Z,77.40
2022-10-06T02:40:45.146Z,78.04
2022-10-06T02:45:55.959Z,78.30
2022-10-06T02:51:01.746Z,78.16
2022-10-06T02:56:10.999Z,78.06
2022-10-06T03:01:18.395Z,78.21
2022-10-06T03:06:21.912Z,78.31
2022-10-06T03:11:32.345Z,78.23
2022-10-06T03:16:39.772Z,78.28
2022-10-06T03:21:44.935Z,78.20
2022-10-06T03:26:48.312Z,78.21
2022-10-06T03:31:51.234Z,78.28
2022-10-06T03:36:53.083Z,78.50
2022-10-06T03:41:58.038Z,78.78
2022-10-06T03:47:01.129Z,78.77
2022-10-06T03:52:03.459Z,78.76
2022-10-06T03:57:09.364Z,78.66
2022-10-06T04:02:12.058Z,78.68
2022-10-06T04:17:18.626Z,78.83
2022-10-06T04:22:20.612Z,78.92
2022-10-06T04:32:44.595Z,79.12
2022-10-06T04:37:49.915Z,79.18
2022-10-06T04:42:52.028Z,79.38
2022-10-06T04:47:54.181Z,79.54
2022-10-06T04:52:58.354Z,79.65
2022-10-06T04:58:01.252Z,79.77
2022-10-06T05:03:03.572Z,79.97
2022-10-06T05:08:11.924Z,80.24
2022-10-06T05:13:14.816Z,80.51
2022-10-06T05:23:18.831Z,80.76
2022-10-06T05:28:22.774Z,80.84
2022-10-06T05:33:27.730Z,80.84
2022-10-06T05:38:30.841Z,80.62
2022-10-06T05:43:34.123Z,80.49
2022-10-06T05:48:36.957Z,80.33
2022-10-06T05:53:38.962Z,80.16
2022-10-06T05:58:43.480Z,80.10
2022-10-06T06:03:51.067Z,79.86
2022-10-06T06:08:54.227Z,79.61
2022-10-06T06:14:00.483Z,79.43
2022-10-06T06:39:20.016Z,77.10
2022-10-06T06:44:23.959Z,77.06
2022-10-06T06:49:28.697Z,77.18
2022-10-06T06:54:37.308Z,77.59
2022-10-06T06:59:45.587Z,77.33
2022-10-06T07:04:57.369Z,76.39
2022-10-06T07:10:09.851Z,75.40
2022-10-06T07:15:31.516Z,74.66
2022-10-06T07:20:52.446Z,74.29
2022-10-06T07:25:54.432Z,73.35
2022-10-06T07:31:04.534Z,73.14
2022-10-06T07:36:16.404Z,72.60
2022-10-06T07:41:20.091Z,71.74
2022-10-06T07:46:34.922Z,70.12
2022-10-06T07:51:44.905Z,69.77
2022-10-06T07:56:47.051Z,69.05
2022-10-06T08:01:51.257Z,68.55
2022-10-06T08:06:54.556Z,68.80
2022-10-06T08:11:56.443Z,68.30
2022-10-06T08:16:59.054Z,68.25
2022-10-06T08:22:04.660Z,67.99
2022-10-06T08:27:27.357Z,66.87
2022-10-06T08:32:43.300Z,66.11
2022-10-06T08:37:48.253Z,65.16
2022-10-06T08:42:53.450Z,64.72
2022-10-06T08:48:05.524Z,64.59
2022-10-06T08:53:35.930Z,64.22
2022-10-06T08:58:58.432Z,63.99
2022-10-06T09:04:03.610Z,63.50
2022-10-06T09:09:29.519Z,62.36
2022-10-06T09:14:39.497Z,60.90
2022-10-06T09:20:01.599Z,61.13
2022-10-06T09:25:20.204Z,59.83
2022-10-06T09:30:22.847Z,59.61
2022-10-06T09:35:27.366Z,60.18
2022-10-06T09:40:53.428Z,59.70
2022-10-06T09:46:17.782Z,59.46
2022-10-06T09:51:20.288Z,58.72
2022-10-06T09:56:22.781Z,57.99
2022-10-06T10:01:30.773Z,58.02
2022-10-06T10:06:52.442Z,57.53
2022-10-06T10:12:26.459Z,56.84
2022-10-06T10:17:36.713Z,56.49
2022-10-06T10:22:41.697Z,57.46
2022-10-06T10:28:11.061Z,56.50
2022-10-06T10:34:12.654Z,55.27
2022-10-06T10:39:41.469Z,55.66
2022-10-06T10:44:55.437Z,55.55
2022-10-06T10:50:04.555Z,54.84
2022-10-06T10:55:27.958Z,55.27
2022-10-06T11:00:32.190Z,55.96
2022-10-06T11:06:19.008Z,56.15
2022-10-06T11:11:41.172Z,57.31
2022-10-06T11:17:07.025Z,57.79
2022-10-06T11:22:32.043Z,57.79
2022-10-06T11:27:54.840Z,57.81
2022-10-06T11:33:20.360Z,57.34
2022-10-06T11:38:25.217Z,57.84
2022-10-06T11:44:00.707Z,58.36
2022-10-06T11:49:40.356Z,57.95
2022-10-06T11:54:53.875Z,56.48
2022-10-06T12:00:17.461Z,55.72
2022-10-06T12:11:03.333Z,55.42
2022-10-06T12:22:01.287Z,53.49
2022-10-06T12:27:29.649Z,53.36
2022-10-06T12:32:43.743Z,54.82
2022-10-06T12:37:56.338Z,55.88
2022-10-06T12:43:19.303Z,56.54
2022-10-06T12:48:29.664Z,57.25
2022-10-06T12:53:49.687Z,57.23
2022-10-06T12:58:53.096Z,57.00
2022-10-06T13:03:55.490Z,56.96
2022-10-06T13:09:14.472Z,57.04
2022-10-06T13:14:16.368Z,57.74
2022-10-06T13:19:24.075Z,58.76
2022-10-06T13:24:30.321Z,59.98
2022-10-06T13:29:32.335Z,59.94
2022-10-06T13:34:35.464Z,60.65
2022-10-06T13:39:37.519Z,60.58
2022-10-06T13:45:02.008Z,60.44
2022-10-06T13:50:19.958Z,60.74
2022-10-06T13:55:31.373Z,61.21
2022-10-06T14:00:46.255Z,61.57
2022-10-06T14:05:48.339Z,61.78
2022-10-06T14:10:56.861Z,63.01
2022-10-06T14:16:05.494Z,64.44
2022-10-06T14:21:41.813Z,65.75
2022-10-06T14:26:45.303Z,66.47
2022-10-06T14:31:48.349Z,66.60
2022-10-06T14:36:51.748Z,67.25
2022-10-06T14:41:53.571Z,68.00
2022-10-06T14:46:55.550Z,68.54
2022-10-06T14:51:57.573Z,68.47
2022-10-06T14:57:00.638Z,68.70
2022-10-06T15:02:03.577Z,69.08
2022-10-06T15:07:31.361Z,68.90
2022-10-06T15:12:34.036Z,68.26
2022-10-06T15:17:56.371Z,68.57
2022-10-06T15:23:05.511Z,68.47
2022-10-06T15:28:28.245Z,68.32
2022-10-06T15:33:30.591Z,68.47
2022-10-06T15:38:36.380Z,68.05
2022-10-06T15:44:00.345Z,67.87
2022-10-06T15:49:05.172Z,68.16
2022-10-06T15:54:07.205Z,68.52
2022-10-06T15:59:09.044Z,68.81
2022-10-06T16:04:24.682Z,69.04
2022-10-06T16:09:31.851Z,69.35
2022-10-06T16:14:34.676Z,69.13
2022-10-06T16:19:37.541Z,69.29
2022-10-06T16:24:39.571Z,69.62
2022-10-06T16:29:41.742Z,69.45
2022-10-06T16:34:43.603Z,69.97
2022-10-06T16:39:45.375Z,70.00
2022-10-06T16:44:47.468Z,70.46
2022-10-06T16:49:49.246Z,71.10
2022-10-06T16:54:51.145Z,71.90
2022-10-06T16:59:53.213Z,72.66
2022-10-06T17:04:55.218Z,72.95
2022-10-06T17:10:18.969Z,72.94
2022-10-06T17:15:19.329Z,73.09
2022-10-06T17:20:24.014Z,73.52
2022-10-06T17:25:25.923Z,73.95
2022-10-06T17:30:48.405Z,74.21
2022-10-06T17:36:22.039Z,74.61
2022-10-06T17:41:25.630Z,74.72
2022-10-06T17:46:27.833Z,74.82
2022-10-06T17:51:33.282Z,74.96
2022-10-06T17:56:35.446Z,75.40
2022-10-06T18:01:37.792Z,75.78
2022-10-06T18:06:39.775Z,76.14
2022-10-06T18:11:43.802Z,76.52
2022-10-06T18:16:55.705Z,76.69
2022-10-06T18:22:01.199Z,77.07
2022-10-06T18:27:05.187Z,77.42
2022-10-06T18:34:00.503Z,77.80
2022-10-06T18:37:34.892Z,77.89
2022-10-06T18:42:36.745Z,78.83
2022-10-06T18:47:57.949Z,79.18
2022-10-06T18:52:59.981Z,79.62
2022-10-06T18:58:03.320Z,80.15
2022-10-06T19:03:05.563Z,80.20
2022-10-06T19:08:09.460Z,80.38
2022-10-06T19:13:11.414Z,80.89
2022-10-06T19:18:13.469Z,81.56
2022-10-06T19:23:15.294Z,81.86
2022-10-06T19:28:17.245Z,82.10
2022-10-06T19:33:20.652Z,82.33
2022-10-06T19:38:24.452Z,82.20
2022-10-06T19:43:26.383Z,82.49
2022-10-06T19:48:29.171Z,83.04
2022-10-06T19:53:31.000Z,83.50
2022-10-06T19:58:33.414Z,83.69
2022-10-06T20:03:40.193Z,83.64
2022-10-06T20:08:44.168Z,83.61
2022-10-06T20:13:46.652Z,84.15
2022-10-06T20:18:50.538Z,84.24
2022-10-06T20:23:55.526Z,84.66
2022-10-06T20:29:02.147Z,85.19
2022-10-06T20:34:07.215Z,85.35
2022-10-06T20:39:33.311Z,85.74
2022-10-06T20:44:38.156Z,85.83
2022-10-06T20:49:42.070Z,86.04
2022-10-06T20:54:44.562Z,86.26
2022-10-06T20:59:46.340Z,86.53
2022-10-06T21:04:48.211Z,86.71
2022-10-06T21:09:52.275Z,86.94
2022-10-06T21:14:57.109Z,86.93
2022-10-06T21:19:58.999Z,87.03
2022-10-06T21:25:01.068Z,87.19
2022-10-06T21:30:02.981Z,87.23
2022-10-06T21:35:07.235Z,87.09
2022-10-06T21:40:09.688Z,87.11
2022-10-06T21:45:11.899Z,87.53
2022-10-06T21:50:13.939Z,88.05
2022-10-06T21:55:15.916Z,88.26
2022-10-06T22:00:17.793Z,88.29
2022-10-06T22:05:19.674Z,88.57
2022-10-06T22:10:21.752Z,88.99
2022-10-06T22:15:23.835Z,89.20
2022-10-06T22:20:25.665Z,89.24
2022-10-06T22:25:27.685Z,89.28
2022-10-06T22:30:29.444Z,89.23
2022-10-06T22:35:31.243Z,89.16
2022-10-06T22:40:33.122Z,89.11
2022-10-06T22:45:35.103Z,89.12
2022-10-06T22:50:36.962Z,89.20
2022-10-06T22:55:39.163Z,89.11
2022-10-06T23:00:41.886Z,89.17
2022-10-06T23:05:56.650Z,89.41
2022-10-06T23:11:24.948Z,89.66
2022-10-06T23:16:29.523Z,89.61
2022-10-06T23:21:32.377Z,89.60
2022-10-06T23:26:34.451Z,89.61
2022-10-06T23:31:36.309Z,89.51
2022-10-06T23:36:39.145Z,89.53
2022-10-06T23:41:42.190Z,89.39
2022-10-06T23:46:44.113Z,89.35
2022-10-06T23:51:52.751Z,89.31
2022-10-06T23:56:55.859Z,89.40
